Time;durP1;ratioP1;P1;durP2;ratioP2;P2;SDS_P1;SDS_P2;PMS_P1;PMS_P2;Temp;Humidity;BMP_temperature;BMP_pressure;BME280_temperature;BME280_humidity;BME280_pressure;Samples;Min_cycle;Max_cycle;Signal;HPM_P1;HPM_P2
2023/05/22 00:02:03;;;;;;;5.50;4.80;;;;;;;-128.00;-1.00;-1.00;105696;1251;1004471;-71
2023/05/22 00:04:30;;;;;;;8.60;6.80;;;;;;;-128.00;-1.00;-1.00;105756;1251;1005642;-71
2023/05/22 00:06:57;;;;;;;9.90;6.40;;;;;;;-128.00;-1.00;-1.00;105734;1251;1005056;-71
2023/05/22 00:09:25;;;;;;;9.20;6.10;;;;;;;-128.00;-1.00;-1.00;105754;1251;1003794;-71
2023/05/22 00:11:51;;;;;;;10.40;6.10;;;;;;;-128.00;-1.00;-1.00;105777;1251;1003931;-71
2023/05/22 00:14:18;;;;;;;7.40;6.60;;;;;;;-128.00;-1.00;-1.00;105717;1251;1004106;-71
2023/05/22 00:16:47;;;;;;;10.70;5.40;;;;;;;-128.00;-1.00;-1.00;105709;1253;1004194;-71
2023/05/22 00:19:15;;;;;;;6.10;5.20;;;;;;;-128.00;-1.00;-1.00;105751;1251;1048077;-71
2023/05/22 00:21:42;;;;;;;8.20;5.50;;;;;;;-128.00;-1.00;-1.00;105709;1251;1060877;-72
2023/05/22 00:24:09;;;;;;;9.60;5.80;;;;;;;-128.00;-1.00;-1.00;105747;1251;1003654;-71
2023/05/22 00:26:35;;;;;;;6.20;5.60;;;;;;;-128.00;-1.00;-1.00;105725;1251;1004254;-71
2023/05/22 00:29:04;;;;;;;8.50;6.70;;;;;;;-128.00;-1.00;-1.00;105782;1253;1003833;-71
2023/05/22 00:31:31;;;;;;;8.70;6.60;;;;;;;-128.00;-1.00;-1.00;105723;1251;1046629;-71
2023/05/22 00:33:58;;;;;;;7.60;6.10;;;;;;;-128.00;-1.00;-1.00;105731;1251;1004407;-71
2023/05/22 00:36:24;;;;;;;8.60;5.60;;;;;;;-128.00;-1.00;-1.00;105722;1251;1004325;-71
2023/05/22 00:38:51;;;;;;;6.90;6.10;;;;;;;-128.00;-1.00;-1.00;105714;1251;1004154;-71
2023/05/22 00:41:17;;;;;;;9.30;8.50;;;;;;;-128.00;-1.00;-1.00;105708;1251;1004043;-71
2023/05/22 00:43:44;;;;;;;8.30;7.30;;;;;;;-128.00;-1.00;-1.00;105763;1253;1003887;-71
2023/05/22 00:46:11;;;;;;;7.20;5.90;;;;;;;-128.00;-1.00;-1.00;105759;1251;1003605;-71
2023/05/22 00:48:37;;;;;;;8.40;6.30;;;;;;;-128.00;-1.00;-1.00;105752;1251;1004103;-72
2023/05/22 00:51:06;;;;;;;8.10;6.30;;;;;;;-128.00;-1.00;-1.00;105719;1251;1003431;-71
2023/05/22 00:53:32;;;;;;;9.30;5.60;;;;;;;-128.00;-1.00;-1.00;105717;1251;1004602;-71
2023/05/22 00:55:59;;;;;;;11.40;5.80;;;;;;;-128.00;-1.00;-1.00;105720;1253;1004056;-71
2023/05/22 00:58:26;;;;;;;6.40;5.30;;;;;;;-128.00;-1.00;-1.00;105718;1251;1004386;-71
2023/05/22 01:00:54;;;;;;;6.50;5.30;;;;;;;-128.00;-1.00;-1.00;105526;1251;1004732;-71
2023/05/22 01:03:24;;;;;;;7.80;6.20;;;;;;;-128.00;-1.00;-1.00;105753;1251;1005168;-71
2023/05/22 01:05:52;;;;;;;6.70;6.00;;;;;;;-128.00;-1.00;-1.00;105737;1251;1046429;-71
2023/05/22 01:08:19;;;;;;;7.10;6.10;;;;;;;-128.00;-1.00;-1.00;105733;1253;1003897;-71
2023/05/22 01:10:51;;;;;;;6.90;6.00;;;;;;;-128.00;-1.00;-1.00;105699;1253;1004151;-71
2023/05/22 01:13:35;;;;;;;7.30;6.50;;;;;;;-128.00;-1.00;-1.00;105722;1255;1055864;-71
2023/05/22 01:16:20;;;;;;;10.60;7.00;;;;;;;-128.00;-1.00;-1.00;105717;1251;1059863;-71
2023/05/22 01:19:04;;;;;;;9.00;6.60;;;;;;;-128.00;-1.00;-1.00;105658;1252;1046155;-71
2023/05/22 01:21:46;;;;;;;8.30;6.10;;;;;;;-128.00;-1.00;-1.00;105743;1251;1046601;-71
2023/05/22 01:24:51;;;;;;;9.00;5.40;;;;;;;-128.00;-1.00;-1.00;105681;1253;1061716;-71
2023/05/22 01:27:51;;;;;;;8.20;5.90;;;;;;;-128.00;-1.00;-1.00;105152;1258;1055951;-71
2023/05/22 01:30:20;;;;;;;7.70;5.80;;;;;;;-128.00;-1.00;-1.00;105177;1259;1059033;-71
2023/05/22 01:32:48;;;;;;;8.20;5.40;;;;;;;-128.00;-1.00;-1.00;105197;1260;1046301;-71
2023/05/22 01:35:17;;;;;;;6.00;5.30;;;;;;;-128.00;-1.00;-1.00;105173;1259;1004736;-71
2023/05/22 01:37:44;;;;;;;8.20;5.80;;;;;;;-128.00;-1.00;-1.00;105138;1258;1062567;-71
2023/05/22 01:40:12;;;;;;;7.80;5.70;;;;;;;-128.00;-1.00;-1.00;105081;1260;1004060;-71
2023/05/22 01:42:40;;;;;;;6.20;5.60;;;;;;;-128.00;-1.00;-1.00;105054;1261;1003488;-71
2023/05/22 01:45:10;;;;;;;7.10;5.40;;;;;;;-128.00;-1.00;-1.00;105158;1260;1003429;-71
2023/05/22 01:47:36;;;;;;;;;;;;;;;-128.00;-1.00;-1.00;105186;1259;1048151;-71
2023/05/22 01:50:04;;;;;;;5.90;4.90;;;;;;;-128.00;-1.00;-1.00;105162;1260;1004139;-71
2023/05/22 01:52:38;;;;;;;5.90;5.30;;;;;;;-128.00;-1.00;-1.00;105139;1260;1004822;-71
2023/05/22 01:55:12;;;;;;;7.00;5.50;;;;;;;-128.00;-1.00;-1.00;105068;1259;1059272;-72
2023/05/22 01:58:13;;;;;;;6.30;5.50;;;;;;;-128.00;-1.00;-1.00;105119;1259;1046252;-71
2023/05/22 02:00:42;;;;;;;7.80;5.60;;;;;;;-128.00;-1.00;-1.00;104891;1266;1045867;-71
2023/05/22 02:03:15;;;;;;;6.30;5.40;;;;;;;-128.00;-1.00;-1.00;104906;1264;1062464;-71
2023/05/22 02:05:43;;;;;;;7.40;6.50;;;;;;;-128.00;-1.00;-1.00;105220;1258;1055176;-71
2023/05/22 02:08:12;;;;;;;8.80;7.40;;;;;;;-128.00;-1.00;-1.00;105199;1259;1059638;-71
2023/05/22 02:10:39;;;;;;;8.10;6.00;;;;;;;-128.00;-1.00;-1.00;105197;1258;1004920;-71
2023/05/22 02:13:07;;;;;;;8.30;5.40;;;;;;;-128.00;-1.00;-1.00;105108;1263;1004299;-71
2023/05/22 02:15:34;;;;;;;7.10;5.50;;;;;;;-128.00;-1.00;-1.00;105200;1258;1004430;-71
2023/05/22 02:18:01;;;;;;;10.20;6.20;;;;;;;-128.00;-1.00;-1.00;105240;1259;1003719;-71
2023/05/22 02:20:28;;;;;;;5.10;4.60;;;;;;;-128.00;-1.00;-1.00;105173;1258;1003914;-71
2023/05/22 02:22:54;;;;;;;5.60;5.00;;;;;;;-128.00;-1.00;-1.00;105213;1259;1004056;-72
2023/05/22 02:25:21;;;;;;;7.60;5.80;;;;;;;-128.00;-1.00;-1.00;105203;1261;1004280;-71
2023/05/22 02:27:48;;;;;;;7.80;5.50;;;;;;;-128.00;-1.00;-1.00;105238;1259;1004213;-71
2023/05/22 02:30:15;;;;;;;8.10;5.90;;;;;;;-128.00;-1.00;-1.00;105212;1259;1004291;-71
2023/05/22 02:32:42;;;;;;;5.80;5.10;;;;;;;-128.00;-1.00;-1.00;105216;1259;1004521;-71
2023/05/22 02:35:09;;;;;;;5.60;5.00;;;;;;;-128.00;-1.00;-1.00;105181;1259;1004237;-71
2023/05/22 02:37:35;;;;;;;9.00;5.40;;;;;;;-128.00;-1.00;-1.00;105545;1251;1003983;-71
2023/05/22 02:40:06;;;;;;;6.80;5.60;;;;;;;-128.00;-1.00;-1.00;105703;1255;1004970;-71
2023/05/22 02:42:33;;;;;;;10.10;5.10;;;;;;;-128.00;-1.00;-1.00;105728;1251;1054809;-71
2023/05/22 02:45:00;;;;;;;9.30;5.90;;;;;;;-128.00;-1.00;-1.00;105706;1251;1003231;-71
2023/05/22 02:47:26;;;;;;;9.00;5.30;;;;;;;-128.00;-1.00;-1.00;105468;1256;1004791;-71
2023/05/22 02:49:53;;;;;;;5.50;5.00;;;;;;;-128.00;-1.00;-1.00;105663;1251;1003917;-71
2023/05/22 02:52:19;;;;;;;6.20;5.60;;;;;;;-128.00;-1.00;-1.00;105711;1251;1004876;-71
2023/05/22 02:54:46;;;;;;;6.70;5.30;;;;;;;-128.00;-1.00;-1.00;105710;1254;1004470;-71
2023/05/22 02:57:12;;;;;;;8.80;5.40;;;;;;;-128.00;-1.00;-1.00;105718;1251;1004138;-71
2023/05/22 02:59:39;;;;;;;7.70;5.90;;;;;;;-128.00;-1.00;-1.00;105727;1251;1004708;-71
2023/05/22 03:02:05;;;;;;;8.40;5.40;;;;;;;-128.00;-1.00;-1.00;105711;1251;1003698;-71
2023/05/22 03:04:32;;;;;;;7.00;5.80;;;;;;;-128.00;-1.00;-1.00;105704;1255;1004113;-71
2023/05/22 03:07:00;;;;;;;8.70;5.90;;;;;;;-128.00;-1.00;-1.00;105671;1255;1003566;-71
2023/05/22 03:09:26;;;;;;;6.40;5.60;;;;;;;-128.00;-1.00;-1.00;105686;1251;1004090;-72
2023/05/22 03:11:53;;;;;;;6.70;5.70;;;;;;;-128.00;-1.00;-1.00;105706;1251;1005805;-71
2023/05/22 03:14:19;;;;;;;8.70;6.20;;;;;;;-128.00;-1.00;-1.00;105733;1251;1004822;-71
2023/05/22 03:16:46;;;;;;;6.30;5.50;;;;;;;-128.00;-1.00;-1.00;105706;1251;1004650;-71
2023/05/22 03:19:14;;;;;;;8.10;5.50;;;;;;;-128.00;-1.00;-1.00;105690;1251;1005077;-71
2023/05/22 03:21:44;;;;;;;6.60;5.80;;;;;;;-128.00;-1.00;-1.00;105615;1251;1005934;-71
2023/05/22 03:24:14;;;;;;;9.80;5.90;;;;;;;-128.00;-1.00;-1.00;105646;1251;1045786;-71
2023/05/22 03:26:40;;;;;;;7.50;6.70;;;;;;;-128.00;-1.00;-1.00;105715;1251;1046959;-71
2023/05/22 03:29:07;;;;;;;7.30;5.20;;;;;;;-128.00;-1.00;-1.00;105721;1252;1003451;-70
2023/05/22 03:31:35;;;;;;;6.00;5.20;;;;;;;-128.00;-1.00;-1.00;105736;1251;1004703;-70
2023/05/22 03:34:02;;;;;;;7.40;5.00;;;;;;;-128.00;-1.00;-1.00;105500;1251;1004666;-70
2023/05/22 03:36:28;;;;;;;7.50;5.30;;;;;;;-128.00;-1.00;-1.00;105712;1251;1004699;-70
2023/05/22 03:38:55;;;;;;;5.60;4.40;;;;;;;-128.00;-1.00;-1.00;105762;1251;1003761;-70
2023/05/22 03:41:21;;;;;;;6.80;4.90;;;;;;;-128.00;-1.00;-1.00;105702;1251;1004441;-71
2023/05/22 03:43:48;;;;;;;5.60;4.60;;;;;;;-128.00;-1.00;-1.00;105739;1251;1004514;-71
2023/05/22 03:46:14;;;;;;;7.30;5.20;;;;;;;-128.00;-1.00;-1.00;105422;1251;1003607;-71
2023/05/22 03:48:41;;;;;;;5.70;4.90;;;;;;;-128.00;-1.00;-1.00;105714;1251;1004554;-71
2023/05/22 03:51:07;;;;;;;5.10;4.20;;;;;;;-128.00;-1.00;-1.00;105614;1251;1004657;-71
2023/05/22 03:53:34;;;;;;;5.10;4.40;;;;;;;-128.00;-1.00;-1.00;105733;1251;1004571;-71
2023/05/22 03:56:00;;;;;;;5.80;4.50;;;;;;;-128.00;-1.00;-1.00;105688;1251;1003867;-70
2023/05/22 03:58:27;;;;;;;5.80;4.30;;;;;;;-128.00;-1.00;-1.00;105674;1252;1004060;-70
2023/05/22 04:00:57;;;;;;;7.40;4.90;;;;;;;-128.00;-1.00;-1.00;105688;1251;1004741;-70
2023/05/22 04:03:24;;;;;;;7.70;4.80;;;;;;;-128.00;-1.00;-1.00;105717;1251;1047564;-71
2023/05/22 04:05:50;;;;;;;6.50;4.80;;;;;;;-128.00;-1.00;-1.00;105712;1251;1003318;-71
2023/05/22 04:08:17;;;;;;;6.30;5.10;;;;;;;-128.00;-1.00;-1.00;105749;1251;1004699;-71
2023/05/22 04:10:47;;;;;;;5.80;5.20;;;;;;;-128.00;-1.00;-1.00;105717;1251;1004685;-71
2023/05/22 04:13:15;;;;;;;9.20;5.60;;;;;;;-128.00;-1.00;-1.00;105667;1251;1043973;-71
2023/05/22 04:15:44;;;;;;;6.30;5.10;;;;;;;-128.00;-1.00;-1.00;105745;1251;1004091;-71
2023/05/22 04:18:11;;;;;;;5.80;4.80;;;;;;;-128.00;-1.00;-1.00;105698;1252;1061938;-71
2023/05/22 04:20:39;;;;;;;7.30;5.10;;;;;;;-128.00;-1.00;-1.00;105706;1251;1005561;-71
2023/05/22 04:23:06;;;;;;;5.90;5.20;;;;;;;-128.00;-1.00;-1.00;105726;1251;1004730;-71
2023/05/22 04:25:33;;;;;;;5.20;4.30;;;;;;;-128.00;-1.00;-1.00;105514;1251;1005089;-71
2023/05/22 04:28:02;;;;;;;6.00;4.80;;;;;;;-128.00;-1.00;-1.00;105801;1251;1004353;-71
2023/05/22 04:30:32;;;;;;;5.30;4.80;;;;;;;-128.00;-1.00;-1.00;105716;1251;1061141;-71
2023/05/22 04:32:59;;;;;;;7.50;5.00;;;;;;;-128.00;-1.00;-1.00;105753;1251;1055742;-72
2023/05/22 04:35:28;;;;;;;8.00;5.40;;;;;;;-128.00;-1.00;-1.00;105746;1251;1004531;-71
2023/05/22 04:37:56;;;;;;;5.60;4.10;;;;;;;-128.00;-1.00;-1.00;105450;1251;1045675;-71
2023/05/22 04:40:22;;;;;;;4.90;4.50;;;;;;;-128.00;-1.00;-1.00;105717;1251;1004070;-71
2023/05/22 04:42:49;;;;;;;5.60;4.80;;;;;;;-128.00;-1.00;-1.00;105705;1251;1003923;-71
2023/05/22 04:45:18;;;;;;;5.30;4.80;;;;;;;-128.00;-1.00;-1.00;105738;1251;1003667;-72
2023/05/22 04:47:44;;;;;;;6.30;5.10;;;;;;;-128.00;-1.00;-1.00;105722;1251;1059065;-71
2023/05/22 04:50:13;;;;;;;5.20;4.60;;;;;;;-128.00;-1.00;-1.00;105687;1251;1004068;-71
2023/05/22 04:52:39;;;;;;;7.00;5.60;;;;;;;-128.00;-1.00;-1.00;105704;1251;1048713;-71
2023/05/22 04:55:07;;;;;;;5.60;5.00;;;;;;;-128.00;-1.00;-1.00;105722;1251;1004982;-72
2023/05/22 04:57:33;;;;;;;5.10;4.70;;;;;;;-128.00;-1.00;-1.00;105732;1251;1003981;-71
2023/05/22 05:00:00;;;;;;;7.00;5.10;;;;;;;-128.00;-1.00;-1.00;105698;1251;1004552;-71
2023/05/22 05:02:27;;;;;;;9.70;4.80;;;;;;;-128.00;-1.00;-1.00;105615;1251;1003977;-71
2023/05/22 05:04:53;;;;;;;7.50;5.20;;;;;;;-128.00;-1.00;-1.00;105721;1251;1003772;-72
2023/05/22 05:07:20;;;;;;;5.40;4.60;;;;;;;-128.00;-1.00;-1.00;105706;1251;1003491;-72
2023/05/22 05:09:46;;;;;;;6.10;4.90;;;;;;;-128.00;-1.00;-1.00;105542;1251;1005047;-70
2023/05/22 05:12:14;;;;;;;5.20;4.50;;;;;;;-128.00;-1.00;-1.00;105678;1251;1004380;-70
2023/05/22 05:14:41;;;;;;;5.20;4.40;;;;;;;-128.00;-1.00;-1.00;105684;1251;1003487;-70
2023/05/22 05:17:07;;;;;;;8.10;4.60;;;;;;;-128.00;-1.00;-1.00;105679;1251;1003750;-70
2023/05/22 05:19:34;;;;;;;5.60;5.10;;;;;;;-128.00;-1.00;-1.00;105700;1251;1003362;-70
2023/05/22 05:22:00;;;;;;;6.70;4.90;;;;;;;-128.00;-1.00;-1.00;105757;1251;1003672;-70
2023/05/22 05:24:27;;;;;;;13.20;5.10;;;;;;;-128.00;-1.00;-1.00;105702;1251;1003991;-70
2023/05/22 05:26:53;;;;;;;4.70;4.20;;;;;;;-128.00;-1.00;-1.00;105671;1251;1003673;-70
2023/05/22 05:29:20;;;;;;;6.00;4.30;;;;;;;-128.00;-1.00;-1.00;105775;1251;1004198;-70
2023/05/22 05:31:46;;;;;;;4.60;4.20;;;;;;;-128.00;-1.00;-1.00;105546;1251;1004540;-71
2023/05/22 05:34:13;;;;;;;5.00;4.50;;;;;;;-128.00;-1.00;-1.00;105707;1251;1003581;-71
2023/05/22 05:36:40;;;;;;;5.50;4.90;;;;;;;-128.00;-1.00;-1.00;105392;1251;1004401;-71
2023/05/22 05:39:07;;;;;;;5.60;4.40;;;;;;;-128.00;-1.00;-1.00;105720;1251;1003782;-71
2023/05/22 05:41:33;;;;;;;5.70;4.10;;;;;;;-128.00;-1.00;-1.00;105729;1251;1004889;-72
2023/05/22 05:44:00;;;;;;;4.80;4.20;;;;;;;-128.00;-1.00;-1.00;105723;1251;1004227;-71
2023/05/22 05:46:26;;;;;;;6.60;4.20;;;;;;;-128.00;-1.00;-1.00;105716;1251;1004482;-71
2023/05/22 05:48:53;;;;;;;4.80;4.20;;;;;;;-128.00;-1.00;-1.00;105667;1251;1004735;-71
2023/05/22 05:51:20;;;;;;;6.60;3.90;;;;;;;-128.00;-1.00;-1.00;105713;1251;1004868;-71
2023/05/22 05:53:47;;;;;;;4.50;4.10;;;;;;;-128.00;-1.00;-1.00;105689;1251;1004910;-71
2023/05/22 05:56:14;;;;;;;5.60;4.10;;;;;;;-128.00;-1.00;-1.00;105532;1251;1004314;-71
2023/05/22 05:58:40;;;;;;;5.70;3.90;;;;;;;-128.00;-1.00;-1.00;105717;1251;1004140;-71
2023/05/22 06:01:07;;;;;;;6.00;4.50;;;;;;;-128.00;-1.00;-1.00;105704;1251;1004524;-71
2023/05/22 06:03:34;;;;;;;4.70;4.10;;;;;;;-128.00;-1.00;-1.00;105693;1251;1004385;-70
2023/05/22 06:06:02;;;;;;;10.30;4.30;;;;;;;-128.00;-1.00;-1.00;105662;1251;1004212;-71
2023/05/22 06:08:28;;;;;;;4.30;3.80;;;;;;;-128.00;-1.00;-1.00;105725;1251;1004447;-70
2023/05/22 06:10:55;;;;;;;4.70;4.20;;;;;;;-128.00;-1.00;-1.00;105724;1251;1004070;-70
2023/05/22 06:13:21;;;;;;;5.00;3.90;;;;;;;-128.00;-1.00;-1.00;105721;1251;1003954;-71
2023/05/22 06:15:48;;;;;;;4.90;3.80;;;;;;;-128.00;-1.00;-1.00;105668;1251;1004740;-72
2023/05/22 06:18:16;;;;;;;4.80;4.30;;;;;;;-128.00;-1.00;-1.00;105719;1251;1004722;-71
2023/05/22 06:20:42;;;;;;;5.10;4.00;;;;;;;-128.00;-1.00;-1.00;105702;1251;1004249;-71
2023/05/22 06:23:09;;;;;;;6.50;5.00;;;;;;;-128.00;-1.00;-1.00;105771;1251;1004645;-71
2023/05/22 06:25:38;;;;;;;4.90;4.50;;;;;;;-128.00;-1.00;-1.00;105715;1251;1003368;-71
2023/05/22 06:28:05;;;;;;;5.40;4.20;;;;;;;-128.00;-1.00;-1.00;105693;1251;1044424;-71
2023/05/22 06:30:31;;;;;;;5.50;4.30;;;;;;;-128.00;-1.00;-1.00;105741;1251;1004300;-71
2023/05/22 06:32:58;;;;;;;4.40;4.00;;;;;;;-128.00;-1.00;-1.00;105741;1251;1004683;-71
2023/05/22 06:35:24;;;;;;;4.80;4.00;;;;;;;-128.00;-1.00;-1.00;105743;1251;1004745;-71
2023/05/22 06:37:51;;;;;;;6.40;4.20;;;;;;;-128.00;-1.00;-1.00;105675;1251;1003878;-71
2023/05/22 06:40:17;;;;;;;5.90;4.00;;;;;;;-128.00;-1.00;-1.00;105729;1251;1005175;-71
2023/05/22 06:42:44;;;;;;;5.10;4.40;;;;;;;-128.00;-1.00;-1.00;105714;1251;1005867;-70
2023/05/22 06:45:10;;;;;;;5.10;4.40;;;;;;;-128.00;-1.00;-1.00;105720;1251;1003561;-72
2023/05/22 06:47:37;;;;;;;7.00;4.20;;;;;;;-128.00;-1.00;-1.00;105726;1251;1005373;-70
2023/05/22 06:50:05;;;;;;;4.70;4.20;;;;;;;-128.00;-1.00;-1.00;105517;1251;1004243;-71
2023/05/22 06:52:32;;;;;;;8.40;3.60;;;;;;;-128.00;-1.00;-1.00;105720;1251;1004457;-71
2023/05/22 06:55:03;;;;;;;5.80;4.30;;;;;;;-128.00;-1.00;-1.00;105754;1251;1004557;-71
2023/05/22 06:57:30;;;;;;;5.80;4.70;;;;;;;-128.00;-1.00;-1.00;105759;1251;1062643;-71
2023/05/22 06:59:57;;;;;;;7.40;4.20;;;;;;;-128.00;-1.00;-1.00;105760;1251;1003924;-71
2023/05/22 07:02:25;;;;;;;6.80;4.10;;;;;;;-128.00;-1.00;-1.00;105718;1251;1004566;-70
2023/05/22 07:04:52;;;;;;;8.10;4.70;;;;;;;-128.00;-1.00;-1.00;105723;1251;1003869;-71
2023/05/22 07:07:18;;;;;;;4.40;4.00;;;;;;;-128.00;-1.00;-1.00;105733;1251;1004776;-71
2023/05/22 07:09:45;;;;;;;6.40;4.20;;;;;;;-128.00;-1.00;-1.00;105752;1251;1004599;-70
2023/05/22 07:12:12;;;;;;;7.20;4.60;;;;;;;-128.00;-1.00;-1.00;105597;1251;1004204;-70
2023/05/22 07:14:39;;;;;;;6.70;3.60;;;;;;;-128.00;-1.00;-1.00;105751;1251;1004309;-70
2023/05/22 07:17:05;;;;;;;7.80;4.00;;;;;;;-128.00;-1.00;-1.00;105523;1251;1003949;-70
2023/05/22 07:19:32;;;;;;;5.60;4.00;;;;;;;-128.00;-1.00;-1.00;105723;1251;1004205;-70
2023/05/22 07:21:58;;;;;;;7.30;4.60;;;;;;;-128.00;-1.00;-1.00;105712;1251;1005033;-70
2023/05/22 07:24:25;;;;;;;4.70;3.70;;;;;;;-128.00;-1.00;-1.00;105723;1251;1004491;-70
2023/05/22 07:26:52;;;;;;;5.50;3.80;;;;;;;-128.00;-1.00;-1.00;105704;1251;1004750;-70
2023/05/22 07:29:18;;;;;;;4.70;3.50;;;;;;;-128.00;-1.00;-1.00;105727;1251;1004969;-70
2023/05/22 07:31:45;;;;;;;5.40;4.60;;;;;;;-128.00;-1.00;-1.00;105742;1251;1004744;-70
2023/05/22 07:34:11;;;;;;;5.70;4.10;;;;;;;-128.00;-1.00;-1.00;105746;1251;1004047;-71
2023/05/22 07:36:37;;;;;;;5.60;3.90;;;;;;;-128.00;-1.00;-1.00;105697;1251;1005143;-70
2023/05/22 07:39:04;;;;;;;5.00;3.90;;;;;;;-128.00;-1.00;-1.00;105628;1251;1004032;-71
2023/05/22 07:41:31;;;;;;;5.70;4.10;;;;;;;-128.00;-1.00;-1.00;105685;1251;1004637;-70
2023/05/22 07:43:57;;;;;;;7.40;4.00;;;;;;;-128.00;-1.00;-1.00;105705;1251;1004326;-70
2023/05/22 07:46:24;;;;;;;7.10;4.10;;;;;;;-128.00;-1.00;-1.00;105702;1251;1003291;-71
2023/05/22 07:48:50;;;;;;;7.70;3.90;;;;;;;-128.00;-1.00;-1.00;105736;1251;1004140;-71
2023/05/22 07:51:16;;;;;;;4.80;3.30;;;;;;;-128.00;-1.00;-1.00;105704;1251;1005260;-70
2023/05/22 07:53:43;;;;;;;7.00;3.70;;;;;;;-128.00;-1.00;-1.00;105726;1251;1004885;-71
2023/05/22 07:56:10;;;;;;;5.20;3.30;;;;;;;-128.00;-1.00;-1.00;105757;1251;1003948;-70
2023/05/22 07:58:36;;;;;;;4.10;3.60;;;;;;;-128.00;-1.00;-1.00;105713;1251;1004385;-71
2023/05/22 08:01:03;;;;;;;6.50;3.50;;;;;;;-128.00;-1.00;-1.00;105787;1251;1003681;-71
2023/05/22 08:03:30;;;;;;;5.30;3.30;;;;;;;-128.00;-1.00;-1.00;105736;1251;1004690;-71
2023/05/22 08:05:57;;;;;;;6.40;3.90;;;;;;;-128.00;-1.00;-1.00;105741;1251;1004885;-72
2023/05/22 08:08:23;;;;;;;6.60;3.80;;;;;;;-128.00;-1.00;-1.00;105727;1251;1003855;-72
2023/05/22 08:10:50;;;;;;;6.20;4.00;;;;;;;-128.00;-1.00;-1.00;105733;1251;1003887;-71
2023/05/22 08:13:18;;;;;;;4.40;3.30;;;;;;;-128.00;-1.00;-1.00;105715;1251;1004561;-70
2023/05/22 08:15:44;;;;;;;3.30;3.00;;;;;;;-128.00;-1.00;-1.00;105688;1251;1004126;-70
2023/05/22 08:18:12;;;;;;;5.40;3.20;;;;;;;-128.00;-1.00;-1.00;105702;1251;1005423;-70
2023/05/22 08:20:38;;;;;;;5.90;3.30;;;;;;;-128.00;-1.00;-1.00;105718;1251;1005082;-70
2023/05/22 08:23:05;;;;;;;4.40;3.30;;;;;;;-128.00;-1.00;-1.00;105753;1251;1004371;-72
2023/05/22 08:25:31;;;;;;;6.30;3.90;;;;;;;-128.00;-1.00;-1.00;105743;1252;1004439;-71
2023/05/22 08:27:58;;;;;;;7.30;3.50;;;;;;;-128.00;-1.00;-1.00;105680;1251;1004072;-71
2023/05/22 08:30:24;;;;;;;4.40;3.00;;;;;;;-128.00;-1.00;-1.00;105682;1251;1004242;-71
2023/05/22 08:32:51;;;;;;;4.90;3.00;;;;;;;-128.00;-1.00;-1.00;105731;1250;1004429;-72
2023/05/22 08:35:17;;;;;;;6.40;3.00;;;;;;;-128.00;-1.00;-1.00;105750;1251;1003565;-72
2023/05/22 08:37:44;;;;;;;3.80;3.10;;;;;;;-128.00;-1.00;-1.00;105737;1251;1004769;-71
2023/05/22 08:40:13;;;;;;;5.10;3.70;;;;;;;-128.00;-1.00;-1.00;105697;1251;1004249;-71
2023/05/22 08:42:41;;;;;;;4.90;3.50;;;;;;;-128.00;-1.00;-1.00;105722;1251;1004248;-72
2023/05/22 08:45:08;;;;;;;4.10;3.30;;;;;;;-128.00;-1.00;-1.00;105698;1251;1003982;-71
2023/05/22 08:47:36;;;;;;;5.20;4.20;;;;;;;-128.00;-1.00;-1.00;105681;1251;1004395;-72
2023/05/22 08:50:03;;;;;;;5.50;3.20;;;;;;;-128.00;-1.00;-1.00;105680;1251;1005752;-71
2023/05/22 08:52:41;;;;;;;4.80;3.30;;;;;;;-128.00;-1.00;-1.00;105620;1251;1004908;-71
2023/05/22 08:55:08;;;;;;;4.70;3.10;;;;;;;-128.00;-1.00;-1.00;105704;1251;1044682;-70
2023/05/22 08:57:35;;;;;;;5.20;3.20;;;;;;;-128.00;-1.00;-1.00;105696;1251;1005053;-70
2023/05/22 09:00:02;;;;;;;5.50;3.30;;;;;;;-128.00;-1.00;-1.00;105733;1251;1004126;-70
2023/05/22 09:02:30;;;;;;;3.50;2.80;;;;;;;-128.00;-1.00;-1.00;105763;1251;1004969;-70
2023/05/22 09:04:57;;;;;;;4.00;2.50;;;;;;;-128.00;-1.00;-1.00;105735;1251;1003964;-71
2023/05/22 09:07:26;;;;;;;4.80;3.10;;;;;;;-128.00;-1.00;-1.00;105692;1251;1004249;-71
2023/05/22 09:09:53;;;;;;;5.60;2.90;;;;;;;-128.00;-1.00;-1.00;105734;1251;1047796;-71
2023/05/22 09:12:19;;;;;;;3.60;2.80;;;;;;;-128.00;-1.00;-1.00;105723;1251;1004922;-71
2023/05/22 09:14:46;;;;;;;4.70;2.90;;;;;;;-128.00;-1.00;-1.00;105742;1251;1003839;-71
2023/05/22 09:17:16;;;;;;;4.60;2.80;;;;;;;-128.00;-1.00;-1.00;105687;1251;1004726;-71
2023/05/22 09:19:43;;;;;;;;;;;;;;;-128.00;-1.00;-1.00;105744;1251;1044811;-71
2023/05/22 09:22:10;;;;;;;5.90;2.60;;;;;;;-128.00;-1.00;-1.00;105684;1251;1003938;-71
2023/05/22 09:24:38;;;;;;;3.00;2.50;;;;;;;-128.00;-1.00;-1.00;105709;1251;1004845;-71
2023/05/22 09:27:08;;;;;;;3.40;2.70;;;;;;;-128.00;-1.00;-1.00;105774;1251;1004700;-71
2023/05/22 09:29:50;;;;;;;4.80;3.00;;;;;;;-128.00;-1.00;-1.00;105697;1251;1059094;-71
2023/05/22 09:32:17;;;;;;;3.70;3.00;;;;;;;-128.00;-1.00;-1.00;105629;1251;1044952;-72
2023/05/22 09:34:45;;;;;;;3.30;2.50;;;;;;;-128.00;-1.00;-1.00;105704;1251;1004419;-72
2023/05/22 09:37:12;;;;;;;6.40;3.30;;;;;;;-128.00;-1.00;-1.00;105717;1251;1003669;-72
2023/05/22 09:39:42;;;;;;;7.10;2.70;;;;;;;-128.00;-1.00;-1.00;105680;1251;1005077;-71
2023/05/22 09:42:16;;;;;;;4.20;2.80;;;;;;;-128.00;-1.00;-1.00;105718;1251;1060370;-71
2023/05/22 09:44:47;;;;;;;4.80;3.30;;;;;;;-128.00;-1.00;-1.00;105677;1251;1045248;-72
2023/05/22 09:47:14;;;;;;;5.90;3.10;;;;;;;-128.00;-1.00;-1.00;105726;1251;1046759;-71
2023/05/22 09:49:42;;;;;;;5.40;3.10;;;;;;;-128.00;-1.00;-1.00;105736;1251;1004098;-71
2023/05/22 09:52:11;;;;;;;3.60;3.20;;;;;;;-128.00;-1.00;-1.00;105687;1251;1003733;-70
2023/05/22 09:54:48;;;;;;;3.70;2.80;;;;;;;-128.00;-1.00;-1.00;105721;1251;1060042;-70
2023/05/22 09:57:18;;;;;;;4.80;3.00;;;;;;;-128.00;-1.00;-1.00;105703;1251;1044986;-70
2023/05/22 09:59:53;;;;;;;3.60;3.00;;;;;;;-128.00;-1.00;-1.00;105727;1251;1046554;-70
2023/05/22 10:02:24;;;;;;;5.60;2.90;;;;;;;-128.00;-1.00;-1.00;105788;1251;1062076;-70
2023/05/22 10:04:52;;;;;;;7.40;3.40;;;;;;;-128.00;-1.00;-1.00;105677;1251;1057072;-70
2023/05/22 10:07:21;;;;;;;6.80;3.00;;;;;;;-128.00;-1.00;-1.00;105736;1251;1004798;-71
2023/05/22 10:09:53;;;;;;;5.90;3.20;;;;;;;-128.00;-1.00;-1.00;105737;1252;1044757;-71
2023/05/22 10:12:23;;;;;;;5.40;3.30;;;;;;;-128.00;-1.00;-1.00;105683;1251;1047645;-71
2023/05/22 10:14:50;;;;;;;3.50;2.80;;;;;;;-128.00;-1.00;-1.00;105544;1251;1062272;-70
2023/05/22 10:17:17;;;;;;;10.00;4.60;;;;;;;-128.00;-1.00;-1.00;105727;1251;1004578;-70
2023/05/22 10:19:45;;;;;;;13.80;4.30;;;;;;;-128.00;-1.00;-1.00;105704;1251;1004431;-70
2023/05/22 10:22:19;;;;;;;7.20;3.60;;;;;;;-128.00;-1.00;-1.00;105742;1251;1004028;-71
2023/05/22 10:24:47;;;;;;;5.00;2.50;;;;;;;-128.00;-1.00;-1.00;105684;1251;1048367;-71
2023/05/22 10:27:14;;;;;;;4.10;3.00;;;;;;;-128.00;-1.00;-1.00;105706;1251;1003491;-71
2023/05/22 10:29:57;;;;;;;7.50;3.40;;;;;;;-128.00;-1.00;-1.00;105750;1251;1004386;-72
2023/05/22 10:32:34;;;;;;;6.30;3.50;;;;;;;-128.00;-1.00;-1.00;105749;1251;1058107;-72
2023/05/22 10:35:12;;;;;;;10.20;3.90;;;;;;;-128.00;-1.00;-1.00;105684;1251;1044001;-71
2023/05/22 10:37:48;;;;;;;6.00;3.40;;;;;;;-128.00;-1.00;-1.00;105712;1251;1047127;-71
2023/05/22 10:40:27;;;;;;;9.00;2.90;;;;;;;-128.00;-1.00;-1.00;105711;1251;1060192;-72
2023/05/22 10:43:01;;;;;;;7.80;3.20;;;;;;;-128.00;-1.00;-1.00;105536;1251;1056214;-70
2023/05/22 10:45:28;;;;;;;4.20;3.70;;;;;;;-128.00;-1.00;-1.00;105668;1251;1059369;-71
2023/05/22 10:48:08;;;;;;;5.70;3.20;;;;;;;-128.00;-1.00;-1.00;105724;1251;1003969;-71
2023/05/22 10:50:35;;;;;;;;;;;;;;;-128.00;-1.00;-1.00;105737;1251;1047211;-70
2023/05/22 10:53:37;;;;;;;3.10;2.80;;;;;;;-128.00;-1.00;-1.00;105750;1251;1004530;-71
2023/05/22 10:56:15;;;;;;;4.90;2.90;;;;;;;-128.00;-1.00;-1.00;105163;1259;1055970;-70
2023/05/22 10:58:54;;;;;;;4.60;3.20;;;;;;;-128.00;-1.00;-1.00;105168;1258;1058738;-71
2023/05/22 11:01:24;;;;;;;4.10;3.30;;;;;;;-128.00;-1.00;-1.00;105150;1258;1044550;-71
2023/05/22 11:03:59;;;;;;;5.60;2.90;;;;;;;-128.00;-1.00;-1.00;105172;1258;1047513;-71
2023/05/22 11:06:34;;;;;;;4.30;3.10;;;;;;;-128.00;-1.00;-1.00;105167;1258;1061964;-72
2023/05/22 11:09:28;;;;;;;4.60;3.10;;;;;;;-128.00;-1.00;-1.00;105168;1258;1056154;-72
2023/05/22 11:12:15;;;;;;;4.60;3.20;;;;;;;-128.00;-1.00;-1.00;105145;1258;1059470;-70
2023/05/22 11:14:52;;;;;;;3.80;3.30;;;;;;;-128.00;-1.00;-1.00;105159;1258;1045978;-72
2023/05/22 11:17:29;;;;;;;3.70;3.20;;;;;;;-128.00;-1.00;-1.00;105178;1258;1046344;-72
2023/05/22 11:20:06;;;;;;;5.70;4.10;;;;;;;-128.00;-1.00;-1.00;105171;1261;1061035;-71
2023/05/22 11:22:37;;;;;;;3.40;3.10;;;;;;;-128.00;-1.00;-1.00;105131;1260;1056133;-71
2023/05/22 11:25:09;;;;;;;6.20;3.50;;;;;;;-128.00;-1.00;-1.00;105114;1260;1058939;-71